sensor_id;sensor_type;location;lat;lon;timestamp;pressure;altitude;pressure_sealevel;temperature
71649;BMP180;59492;45.638;11.714;2022-08-30T00:01:33;101228.40;;;27.40
71649;BMP180;59492;45.638;11.714;2022-08-30T00:04:00;101224.20;;;27.40
71649;BMP180;59492;45.638;11.714;2022-08-30T00:06:27;101224.80;;;27.40
71649;BMP180;59492;45.638;11.714;2022-08-30T00:08:54;101224.80;;;27.40
71649;BMP180;59492;45.638;11.714;2022-08-30T00:11:24;101222.40;;;27.40
71649;BMP180;59492;45.638;11.714;2022-08-30T00:13:54;101225.60;;;27.40
71649;BMP180;59492;45.638;11.714;2022-08-30T00:16:27;101227.80;;;27.40
71649;BMP180;59492;45.638;11.714;2022-08-30T00:18:54;101232.60;;;27.38
71649;BMP180;59492;45.638;11.714;2022-08-30T00:21:20;101221.60;;;27.36
71649;BMP180;59492;45.638;11.714;2022-08-30T00:23:46;101224.20;;;27.34
71649;BMP180;59492;45.638;11.714;2022-08-30T00:26:12;101220.60;;;27.36
71649;BMP180;59492;45.638;11.714;2022-08-30T00:28:44;101227.00;;;27.32
71649;BMP180;59492;45.638;11.714;2022-08-30T00:31:10;101224.80;;;27.30
71649;BMP180;59492;45.638;11.714;2022-08-30T00:33:38;101222.60;;;27.30
71649;BMP180;59492;45.638;11.714;2022-08-30T00:36:06;101229.60;;;27.30
71649;BMP180;59492;45.638;11.714;2022-08-30T00:38:32;101229.60;;;27.30
71649;BMP180;59492;45.638;11.714;2022-08-30T00:41:01;101228.00;;;27.30
71649;BMP180;59492;45.638;11.714;2022-08-30T00:43:29;101224.60;;;27.30
71649;BMP180;59492;45.638;11.714;2022-08-30T00:45:58;101219.80;;;27.30
71649;BMP180;59492;45.638;11.714;2022-08-30T00:48:24;101216.20;;;27.38
71649;BMP180;59492;45.638;11.714;2022-08-30T00:50:57;101220.20;;;27.36
71649;BMP180;59492;45.638;11.714;2022-08-30T00:53:29;101217.00;;;27.30
71649;BMP180;59492;45.638;11.714;2022-08-30T00:55:57;101218.00;;;27.30
71649;BMP180;59492;45.638;11.714;2022-08-30T00:58:28;101208.80;;;27.20
71649;BMP180;59492;45.638;11.714;2022-08-30T01:00:59;101210.80;;;27.26
71649;BMP180;59492;45.638;11.714;2022-08-30T01:03:27;101206.80;;;27.28
71649;BMP180;59492;45.638;11.714;2022-08-30T01:05:55;101208.80;;;27.30
71649;BMP180;59492;45.638;11.714;2022-08-30T01:08:24;101213.40;;;27.30
71649;BMP180;59492;45.638;11.714;2022-08-30T01:10:51;101211.80;;;27.30
71649;BMP180;59492;45.638;11.714;2022-08-30T01:13:20;101211.80;;;27.30
71649;BMP180;59492;45.638;11.714;2022-08-30T01:15:49;101210.80;;;27.28
71649;BMP180;59492;45.638;11.714;2022-08-30T01:18:19;101207.20;;;27.26
71649;BMP180;59492;45.638;11.714;2022-08-30T01:21:12;101211.40;;;27.28
71649;BMP180;59492;45.638;11.714;2022-08-30T01:23:43;101206.60;;;27.20
71649;BMP180;59492;45.638;11.714;2022-08-30T01:26:10;101206.00;;;27.24
71649;BMP180;59492;45.638;11.714;2022-08-30T01:28:36;101205.80;;;27.24
71649;BMP180;59492;45.638;11.714;2022-08-30T01:31:03;101206.00;;;27.20
71649;BMP180;59492;45.638;11.714;2022-08-30T01:33:34;101204.40;;;27.24
71649;BMP180;59492;45.638;11.714;2022-08-30T01:36:06;101201.40;;;27.20
71649;BMP180;59492;45.638;11.714;2022-08-30T01:38:46;101200.60;;;27.20
71649;BMP180;59492;45.638;11.714;2022-08-30T01:41:19;101205.40;;;27.20
71649;BMP180;59492;45.638;11.714;2022-08-30T01:43:47;101209.40;;;27.20
71649;BMP180;59492;45.638;11.714;2022-08-30T01:46:15;101208.60;;;27.20
71649;BMP180;59492;45.638;11.714;2022-08-30T01:48:43;101204.80;;;27.20
71649;BMP180;59492;45.638;11.714;2022-08-30T01:51:14;101208.80;;;27.20
71649;BMP180;59492;45.638;11.714;2022-08-30T01:53:52;101213.20;;;27.20
71649;BMP180;59492;45.638;11.714;2022-08-30T01:56:18;101215.20;;;27.20
71649;BMP180;59492;45.638;11.714;2022-08-30T01:58:45;101214.60;;;27.20
71649;BMP180;59492;45.638;11.714;2022-08-30T02:01:18;101214.80;;;27.20
71649;BMP180;59492;45.638;11.714;2022-08-30T02:03:45;101202.60;;;27.20
71649;BMP180;59492;45.638;11.714;2022-08-30T02:06:13;101200.80;;;27.20
71649;BMP180;59492;45.638;11.714;2022-08-30T02:08:40;101199.60;;;27.20
71649;BMP180;59492;45.638;11.714;2022-08-30T02:11:09;101204.40;;;27.18
71649;BMP180;59492;45.638;11.714;2022-08-30T02:13:40;101202.40;;;27.18
71649;BMP180;59492;45.638;11.714;2022-08-30T02:16:13;101195.40;;;27.18
71649;BMP180;59492;45.638;11.714;2022-08-30T02:18:40;101194.40;;;27.18
71649;BMP180;59492;45.638;11.714;2022-08-30T02:21:08;101193.00;;;27.16
71649;BMP180;59492;45.638;11.714;2022-08-30T02:23:35;101194.60;;;27.14
71649;BMP180;59492;45.638;11.714;2022-08-30T02:26:03;101194.40;;;27.20
71649;BMP180;59492;45.638;11.714;2022-08-30T02:28:30;101200.40;;;27.20
71649;BMP180;59492;45.638;11.714;2022-08-30T02:31:00;101204.80;;;27.20
71649;BMP180;59492;45.638;11.714;2022-08-30T02:33:28;101206.00;;;27.20
71649;BMP180;59492;45.638;11.714;2022-08-30T02:35:54;101210.20;;;27.20
71649;BMP180;59492;45.638;11.714;2022-08-30T02:38:23;101211.80;;;27.20
71649;BMP180;59492;45.638;11.714;2022-08-30T02:40:49;101205.00;;;27.20
71649;BMP180;59492;45.638;11.714;2022-08-30T02:43:16;101199.20;;;27.20
71649;BMP180;59492;45.638;11.714;2022-08-30T02:45:45;101193.40;;;27.20
71649;BMP180;59492;45.638;11.714;2022-08-30T02:48:13;101200.00;;;27.20
71649;BMP180;59492;45.638;11.714;2022-08-30T02:50:49;101205.20;;;27.20
71649;BMP180;59492;45.638;11.714;2022-08-30T02:53:16;101210.00;;;27.14
71649;BMP180;59492;45.638;11.714;2022-08-30T02:55:50;101219.00;;;27.14
71649;BMP180;59492;45.638;11.714;2022-08-30T02:58:18;101223.80;;;27.16
71649;BMP180;59492;45.638;11.714;2022-08-30T03:00:46;101227.40;;;27.14
71649;BMP180;59492;45.638;11.714;2022-08-30T03:03:14;101233.00;;;27.12
71649;BMP180;59492;45.638;11.714;2022-08-30T03:05:40;101234.60;;;27.12
71649;BMP180;59492;45.638;11.714;2022-08-30T03:08:07;101230.40;;;27.10
71649;BMP180;59492;45.638;11.714;2022-08-30T03:10:36;101230.60;;;27.10
71649;BMP180;59492;45.638;11.714;2022-08-30T03:13:05;101233.00;;;27.10
71649;BMP180;59492;45.638;11.714;2022-08-30T03:15:40;101229.60;;;27.10
71649;BMP180;59492;45.638;11.714;2022-08-30T03:18:18;101230.20;;;27.10
71649;BMP180;59492;45.638;11.714;2022-08-30T03:20:47;101226.40;;;27.10
71649;BMP180;59492;45.638;11.714;2022-08-30T03:23:14;101222.40;;;27.10
71649;BMP180;59492;45.638;11.714;2022-08-30T03:25:43;101214.40;;;27.10
71649;BMP180;59492;45.638;11.714;2022-08-30T03:28:12;101210.20;;;27.08
71649;BMP180;59492;45.638;11.714;2022-08-30T03:30:41;101214.80;;;27.06
71649;BMP180;59492;45.638;11.714;2022-08-30T03:33:13;101221.80;;;27.06
71649;BMP180;59492;45.638;11.714;2022-08-30T03:35:45;101225.80;;;26.90
71649;BMP180;59492;45.638;11.714;2022-08-30T03:38:12;101222.00;;;27.00
71649;BMP180;59492;45.638;11.714;2022-08-30T03:40:37;101216.00;;;27.00
71649;BMP180;59492;45.638;11.714;2022-08-30T03:43:04;101214.40;;;27.00
71649;BMP180;59492;45.638;11.714;2022-08-30T03:45:30;101220.20;;;27.00
71649;BMP180;59492;45.638;11.714;2022-08-30T03:47:55;101228.20;;;27.00
71649;BMP180;59492;45.638;11.714;2022-08-30T03:50:21;101232.00;;;27.00
71649;BMP180;59492;45.638;11.714;2022-08-30T03:52:47;101235.20;;;27.10
71649;BMP180;59492;45.638;11.714;2022-08-30T03:55:13;101242.20;;;27.10
71649;BMP180;59492;45.638;11.714;2022-08-30T03:57:39;101250.00;;;27.06
71649;BMP180;59492;45.638;11.714;2022-08-30T04:00:22;101262.80;;;27.02
71649;BMP180;59492;45.638;11.714;2022-08-30T04:02:51;101273.00;;;27.00
71649;BMP180;59492;45.638;11.714;2022-08-30T04:05:20;101280.00;;;27.00
71649;BMP180;59492;45.638;11.714;2022-08-30T04:07:45;101278.40;;;27.00
71649;BMP180;59492;45.638;11.714;2022-08-30T04:10:11;101282.60;;;27.00
71649;BMP180;59492;45.638;11.714;2022-08-30T04:15:18;101286.20;;;27.00
71649;BMP180;59492;45.638;11.714;2022-08-30T04:17:49;101286.60;;;27.00
71649;BMP180;59492;45.638;11.714;2022-08-30T04:20:15;101286.40;;;27.04
71649;BMP180;59492;45.638;11.714;2022-08-30T04:22:53;101284.40;;;27.10
71649;BMP180;59492;45.638;11.714;2022-08-30T04:25:18;101279.40;;;27.08
71649;BMP180;59492;45.638;11.714;2022-08-30T04:27:45;101282.40;;;27.10
71649;BMP180;59492;45.638;11.714;2022-08-30T04:30:12;101290.40;;;27.06
71649;BMP180;59492;45.638;11.714;2022-08-30T04:32:40;101296.60;;;27.06
71649;BMP180;59492;45.638;11.714;2022-08-30T04:35:09;101298.20;;;27.06
71649;BMP180;59492;45.638;11.714;2022-08-30T04:37:37;101301.00;;;27.04
71649;BMP180;59492;45.638;11.714;2022-08-30T04:40:04;101303.60;;;27.04
71649;BMP180;59492;45.638;11.714;2022-08-30T04:42:32;101314.40;;;27.00
71649;BMP180;59492;45.638;11.714;2022-08-30T04:45:00;101312.80;;;27.02
71649;BMP180;59492;45.638;11.714;2022-08-30T04:47:26;101311.40;;;27.00
71649;BMP180;59492;45.638;11.714;2022-08-30T04:49:55;101309.00;;;27.00
71649;BMP180;59492;45.638;11.714;2022-08-30T04:52:21;101307.20;;;27.00
71649;BMP180;59492;45.638;11.714;2022-08-30T04:54:47;101306.20;;;27.00
71649;BMP180;59492;45.638;11.714;2022-08-30T04:57:13;101302.60;;;27.10
71649;BMP180;59492;45.638;11.714;2022-08-30T04:59:38;101291.20;;;27.10
71649;BMP180;59492;45.638;11.714;2022-08-30T05:02:09;101291.80;;;27.10
71649;BMP180;59492;45.638;11.714;2022-08-30T05:04:35;101284.60;;;27.10
71649;BMP180;59492;45.638;11.714;2022-08-30T05:07:04;101287.60;;;27.10
71649;BMP180;59492;45.638;11.714;2022-08-30T05:09:30;101289.00;;;27.10
71649;BMP180;59492;45.638;11.714;2022-08-30T05:12:03;101284.20;;;27.08
71649;BMP180;59492;45.638;11.714;2022-08-30T05:14:29;101276.00;;;27.04
71649;BMP180;59492;45.638;11.714;2022-08-30T05:16:54;101264.40;;;27.06
71649;BMP180;59492;45.638;11.714;2022-08-30T05:19:23;101257.20;;;27.06
71649;BMP180;59492;45.638;11.714;2022-08-30T05:21:52;101251.00;;;27.00
71649;BMP180;59492;45.638;11.714;2022-08-30T05:24:18;101251.00;;;27.00
71649;BMP180;59492;45.638;11.714;2022-08-30T05:26:44;101249.60;;;27.00
71649;BMP180;59492;45.638;11.714;2022-08-30T05:29:10;101244.80;;;27.00
71649;BMP180;59492;45.638;11.714;2022-08-30T05:31:35;101249.00;;;27.00
71649;BMP180;59492;45.638;11.714;2022-08-30T05:34:03;101255.60;;;27.00
71649;BMP180;59492;45.638;11.714;2022-08-30T05:36:30;101253.40;;;27.00
71649;BMP180;59492;45.638;11.714;2022-08-30T05:38:58;101244.00;;;27.00
71649;BMP180;59492;45.638;11.714;2022-08-30T05:41:25;101239.20;;;27.00
71649;BMP180;59492;45.638;11.714;2022-08-30T05:44:03;101236.80;;;26.98
71649;BMP180;59492;45.638;11.714;2022-08-30T05:46:30;101229.60;;;27.00
71649;BMP180;59492;45.638;11.714;2022-08-30T05:49:02;101225.00;;;26.96
71649;BMP180;59492;45.638;11.714;2022-08-30T05:51:30;101222.00;;;26.96
71649;BMP180;59492;45.638;11.714;2022-08-30T05:53:57;101223.20;;;26.98
71649;BMP180;59492;45.638;11.714;2022-08-30T05:56:34;101226.40;;;26.98
71649;BMP180;59492;45.638;11.714;2022-08-30T05:59:05;101230.40;;;26.92
71649;BMP180;59492;45.638;11.714;2022-08-30T06:01:37;101232.20;;;26.92
71649;BMP180;59492;45.638;11.714;2022-08-30T06:04:04;101235.60;;;26.96
71649;BMP180;59492;45.638;11.714;2022-08-30T06:06:37;101240.20;;;26.80
71649;BMP180;59492;45.638;11.714;2022-08-30T06:09:04;101248.00;;;26.90
71649;BMP180;59492;45.638;11.714;2022-08-30T06:11:30;101252.20;;;26.90
71649;BMP180;59492;45.638;11.714;2022-08-30T06:13:56;101261.80;;;26.90
71649;BMP180;59492;45.638;11.714;2022-08-30T06:16:28;101263.40;;;26.90
71649;BMP180;59492;45.638;11.714;2022-08-30T06:18:55;101263.60;;;26.90
71649;BMP180;59492;45.638;11.714;2022-08-30T06:21:27;101267.20;;;26.90
71649;BMP180;59492;45.638;11.714;2022-08-30T06:24:19;101271.80;;;27.00
71649;BMP180;59492;45.638;11.714;2022-08-30T06:26:46;101278.00;;;27.00
71649;BMP180;59492;45.638;11.714;2022-08-30T06:29:17;101289.60;;;27.00
71649;BMP180;59492;45.638;11.714;2022-08-30T06:31:43;101285.80;;;27.00
71649;BMP180;59492;45.638;11.714;2022-08-30T06:34:18;101284.00;;;27.00
71649;BMP180;59492;45.638;11.714;2022-08-30T06:36:44;101277.00;;;27.00
71649;BMP180;59492;45.638;11.714;2022-08-30T06:39:22;101277.00;;;27.00
71649;BMP180;59492;45.638;11.714;2022-08-30T06:41:48;101273.20;;;27.00
71649;BMP180;59492;45.638;11.714;2022-08-30T06:44:20;101275.20;;;27.00
71649;BMP180;59492;45.638;11.714;2022-08-30T06:46:45;101278.00;;;27.02
71649;BMP180;59492;45.638;11.714;2022-08-30T06:49:12;101278.60;;;27.08
71649;BMP180;59492;45.638;11.714;2022-08-30T06:51:44;101271.00;;;27.06
71649;BMP180;59492;45.638;11.714;2022-08-30T06:54:09;101264.60;;;27.10
71649;BMP180;59492;45.638;11.714;2022-08-30T06:56:36;101259.20;;;27.10
71649;BMP180;59492;45.638;11.714;2022-08-30T06:59:03;101262.00;;;27.10
71649;BMP180;59492;45.638;11.714;2022-08-30T07:01:28;101266.00;;;27.14
71649;BMP180;59492;45.638;11.714;2022-08-30T07:03:55;101268.80;;;27.20
71649;BMP180;59492;45.638;11.714;2022-08-30T07:06:31;101268.40;;;27.22
71649;BMP180;59492;45.638;11.714;2022-08-30T07:08:57;101271.80;;;27.30
71649;BMP180;59492;45.638;11.714;2022-08-30T07:11:33;101271.40;;;27.30
71649;BMP180;59492;45.638;11.714;2022-08-30T07:14:00;101269.00;;;27.40
71649;BMP180;59492;45.638;11.714;2022-08-30T07:16:35;101270.60;;;27.40
71649;BMP180;59492;45.638;11.714;2022-08-30T07:19:03;101276.40;;;27.50
71649;BMP180;59492;45.638;11.714;2022-08-30T07:21:38;101274.80;;;27.50
71649;BMP180;59492;45.638;11.714;2022-08-30T07:24:06;101275.20;;;27.60
71649;BMP180;59492;45.638;11.714;2022-08-30T07:26:46;101275.40;;;27.62
71649;BMP180;59492;45.638;11.714;2022-08-30T07:29:15;101279.80;;;27.70
71649;BMP180;59492;45.638;11.714;2022-08-30T07:31:41;101286.60;;;27.80
71649;BMP180;59492;45.638;11.714;2022-08-30T07:34:13;101288.00;;;27.80
71649;BMP180;59492;45.638;11.714;2022-08-30T07:36:40;101285.40;;;27.90
71649;BMP180;59492;45.638;11.714;2022-08-30T07:39:10;101286.00;;;28.00
71649;BMP180;59492;45.638;11.714;2022-08-30T07:41:37;101283.00;;;28.00
71649;BMP180;59492;45.638;11.714;2022-08-30T07:44:06;101282.60;;;28.10
71649;BMP180;59492;45.638;11.714;2022-08-30T07:46:32;101278.40;;;28.10
71649;BMP180;59492;45.638;11.714;2022-08-30T07:49:00;101277.80;;;28.20
71649;BMP180;59492;45.638;11.714;2022-08-30T07:51:36;101275.60;;;28.20
71649;BMP180;59492;45.638;11.714;2022-08-30T07:54:02;101281.80;;;28.28
71649;BMP180;59492;45.638;11.714;2022-08-30T07:56:28;101281.80;;;28.30
71649;BMP180;59492;45.638;11.714;2022-08-30T07:58:54;101276.80;;;28.36
71649;BMP180;59492;45.638;11.714;2022-08-30T08:01:23;101276.40;;;28.40
71649;BMP180;59492;45.638;11.714;2022-08-30T08:03:49;101278.00;;;28.40
71649;BMP180;59492;45.638;11.714;2022-08-30T08:06:18;101278.60;;;28.50
71649;BMP180;59492;45.638;11.714;2022-08-30T08:08:45;101280.00;;;28.50
71649;BMP180;59492;45.638;11.714;2022-08-30T08:11:12;101280.40;;;28.60
71649;BMP180;59492;45.638;11.714;2022-08-30T08:13:56;101282.80;;;28.60
71649;BMP180;59492;45.638;11.714;2022-08-30T08:16:24;101282.20;;;28.66
71649;BMP180;59492;45.638;11.714;2022-08-30T08:18:50;101287.00;;;28.70
71649;BMP180;59492;45.638;11.714;2022-08-30T08:21:20;101284.00;;;28.72
71649;BMP180;59492;45.638;11.714;2022-08-30T08:23:46;101283.60;;;28.80
71649;BMP180;59492;45.638;11.714;2022-08-30T08:26:12;101283.20;;;28.80
71649;BMP180;59492;45.638;11.714;2022-08-30T08:28:38;101286.00;;;28.80
71649;BMP180;59492;45.638;11.714;2022-08-30T08:31:14;101289.40;;;28.80
71649;BMP180;59492;45.638;11.714;2022-08-30T08:33:40;101289.40;;;28.84
71649;BMP180;59492;45.638;11.714;2022-08-30T08:36:06;101287.00;;;28.90
71649;BMP180;59492;45.638;11.714;2022-08-30T08:38:31;101289.20;;;28.90
71649;BMP180;59492;45.638;11.714;2022-08-30T08:41:24;101284.20;;;28.90
71649;BMP180;59492;45.638;11.714;2022-08-30T08:43:52;101280.40;;;28.90
71649;BMP180;59492;45.638;11.714;2022-08-30T08:46:54;101281.40;;;28.90
71649;BMP180;59492;45.638;11.714;2022-08-30T08:49:21;101285.60;;;28.90
71649;BMP180;59492;45.638;11.714;2022-08-30T08:51:47;101286.80;;;28.94
71649;BMP180;59492;45.638;11.714;2022-08-30T08:54:58;101283.00;;;28.92
71649;BMP180;59492;45.638;11.714;2022-08-30T08:57:26;101283.60;;;28.90
71649;BMP180;59492;45.638;11.714;2022-08-30T08:59:57;101283.60;;;28.98
71649;BMP180;59492;45.638;11.714;2022-08-30T09:02:25;101279.60;;;29.00
71649;BMP180;59492;45.638;11.714;2022-08-30T09:04:58;101276.20;;;29.00
71649;BMP180;59492;45.638;11.714;2022-08-30T09:07:31;101276.00;;;29.00
71649;BMP180;59492;45.638;11.714;2022-08-30T09:09:58;101273.40;;;29.00
71649;BMP180;59492;45.638;11.714;2022-08-30T09:12:26;101272.80;;;29.00
71649;BMP180;59492;45.638;11.714;2022-08-30T09:14:55;101271.80;;;29.06
71649;BMP180;59492;45.638;11.714;2022-08-30T09:17:22;101272.80;;;29.10
71649;BMP180;59492;45.638;11.714;2022-08-30T09:22:39;101274.20;;;29.10
71649;BMP180;59492;45.638;11.714;2022-08-30T09:27:44;101273.60;;;29.10
71649;BMP180;59492;45.638;11.714;2022-08-30T09:30:24;101273.00;;;29.10
71649;BMP180;59492;45.638;11.714;2022-08-30T09:33:17;101273.80;;;29.16
71649;BMP180;59492;45.638;11.714;2022-08-30T09:35:49;101267.80;;;29.16
71649;BMP180;59492;45.638;11.714;2022-08-30T09:38:29;101266.80;;;29.20
71649;BMP180;59492;45.638;11.714;2022-08-30T09:41:00;101266.60;;;29.20
71649;BMP180;59492;45.638;11.714;2022-08-30T09:43:32;101271.80;;;29.20
71649;BMP180;59492;45.638;11.714;2022-08-30T09:48:30;101271.40;;;29.26
71649;BMP180;59492;45.638;11.714;2022-08-30T09:54:03;101271.00;;;29.30
71649;BMP180;59492;45.638;11.714;2022-08-30T09:56:42;101270.80;;;29.30
71649;BMP180;59492;45.638;11.714;2022-08-30T09:59:34;101274.60;;;29.30
71649;BMP180;59492;45.638;11.714;2022-08-30T10:02:29;101271.40;;;29.30
71649;BMP180;59492;45.638;11.714;2022-08-30T10:07:41;101262.80;;;29.30
71649;BMP180;59492;45.638;11.714;2022-08-30T10:10:13;101261.20;;;29.30
71649;BMP180;59492;45.638;11.714;2022-08-30T10:23:31;101246.20;;;29.32
71649;BMP180;59492;45.638;11.714;2022-08-30T10:26:50;101245.20;;;29.38
71649;BMP180;59492;45.638;11.714;2022-08-30T10:29:09;101246.40;;;29.32
71649;BMP180;59492;45.638;11.714;2022-08-30T10:31:55;101246.20;;;29.36
71649;BMP180;59492;45.638;11.714;2022-08-30T10:34:32;101248.80;;;29.32
71649;BMP180;59492;45.638;11.714;2022-08-30T10:37:07;101247.20;;;29.36
71649;BMP180;59492;45.638;11.714;2022-08-30T10:39:38;101249.40;;;29.38
71649;BMP180;59492;45.638;11.714;2022-08-30T10:42:27;101242.00;;;29.40
71649;BMP180;59492;45.638;11.714;2022-08-30T10:45:02;101242.40;;;29.34
71649;BMP180;59492;45.638;11.714;2022-08-30T10:47:43;101243.60;;;29.40
71649;BMP180;59492;45.638;11.714;2022-08-30T10:50:29;101246.00;;;29.36
71649;BMP180;59492;45.638;11.714;2022-08-30T10:53:11;101246.00;;;29.40
71649;BMP180;59492;45.638;11.714;2022-08-30T10:55:46;101244.80;;;29.40
71649;BMP180;59492;45.638;11.714;2022-08-30T10:58:15;101248.60;;;29.40
71649;BMP180;59492;45.638;11.714;2022-08-30T11:14:23;101233.20;;;29.30
71649;BMP180;59492;45.638;11.714;2022-08-30T11:16:50;101234.20;;;29.30
71649;BMP180;59492;45.638;11.714;2022-08-30T11:19:25;101232.60;;;29.30
71649;BMP180;59492;45.638;11.714;2022-08-30T11:21:52;101229.60;;;29.30
71649;BMP180;59492;45.638;11.714;2022-08-30T11:24:23;101227.80;;;29.30
71649;BMP180;59492;45.638;11.714;2022-08-30T11:26:54;101227.60;;;29.30
71649;BMP180;59492;45.638;11.714;2022-08-30T11:29:34;101222.60;;;29.30
71649;BMP180;59492;45.638;11.714;2022-08-30T11:37:38;101206.40;;;29.20
71649;BMP180;59492;45.638;11.714;2022-08-30T11:40:47;101208.00;;;29.20
71649;BMP180;59492;45.638;11.714;2022-08-30T11:46:45;101200.00;;;29.10
71649;BMP180;59492;45.638;11.714;2022-08-30T12:00:05;101181.80;;;29.10
71649;BMP180;59492;45.638;11.714;2022-08-30T12:13:56;101158.00;;;28.96
71649;BMP180;59492;45.638;11.714;2022-08-30T12:16:38;101153.20;;;29.00
71649;BMP180;59492;45.638;11.714;2022-08-30T12:19:25;101147.20;;;28.90
71649;BMP180;59492;45.638;11.714;2022-08-30T12:21:58;101139.00;;;28.90
71649;BMP180;59492;45.638;11.714;2022-08-30T12:24:32;101134.80;;;28.90
71649;BMP180;59492;45.638;11.714;2022-08-30T12:27:22;101132.20;;;28.90
71649;BMP180;59492;45.638;11.714;2022-08-30T12:29:51;101124.00;;;28.86
71649;BMP180;59492;45.638;11.714;2022-08-30T12:32:20;101129.00;;;28.86
71649;BMP180;59492;45.638;11.714;2022-08-30T12:34:57;101128.80;;;28.84
71649;BMP180;59492;45.638;11.714;2022-08-30T12:37:29;101125.40;;;28.80
71649;BMP180;59492;45.638;11.714;2022-08-30T12:42:28;101120.60;;;28.80
71649;BMP180;59492;45.638;11.714;2022-08-30T12:44:59;101113.60;;;28.76
71649;BMP180;59492;45.638;11.714;2022-08-30T12:47:36;101114.60;;;28.70
71649;BMP180;59492;45.638;11.714;2022-08-30T12:50:05;101111.40;;;28.70
71649;BMP180;59492;45.638;11.714;2022-08-30T12:52:41;101109.00;;;28.70
71649;BMP180;59492;45.638;11.714;2022-08-30T12:55:21;101108.60;;;28.68
71649;BMP180;59492;45.638;11.714;2022-08-30T12:58:00;101106.80;;;28.60
71649;BMP180;59492;45.638;11.714;2022-08-30T13:00:38;101106.00;;;28.60
71649;BMP180;59492;45.638;11.714;2022-08-30T13:05:51;101095.40;;;28.60
71649;BMP180;59492;45.638;11.714;2022-08-30T13:08:29;101093.80;;;28.60
71649;BMP180;59492;45.638;11.714;2022-08-30T13:11:03;101089.00;;;28.52
71649;BMP180;59492;45.638;11.714;2022-08-30T13:13:47;101085.60;;;28.52
71649;BMP180;59492;45.638;11.714;2022-08-30T13:18:43;101086.40;;;28.50
71649;BMP180;59492;45.638;11.714;2022-08-30T13:21:12;101081.80;;;28.50
71649;BMP180;59492;45.638;11.714;2022-08-30T13:23:44;101081.00;;;28.50
71649;BMP180;59492;45.638;11.714;2022-08-30T13:26:09;101076.20;;;28.48
71649;BMP180;59492;45.638;11.714;2022-08-30T13:28:48;101077.20;;;28.46
71649;BMP180;59492;45.638;11.714;2022-08-30T13:31:15;101067.60;;;28.40
71649;BMP180;59492;45.638;11.714;2022-08-30T13:33:40;101071.00;;;28.40
71649;BMP180;59492;45.638;11.714;2022-08-30T13:36:14;101064.00;;;28.40
71649;BMP180;59492;45.638;11.714;2022-08-30T13:38:40;101063.80;;;28.40
71649;BMP180;59492;45.638;11.714;2022-08-30T13:41:08;101056.60;;;28.40
71649;BMP180;59492;45.638;11.714;2022-08-30T13:43:37;101057.00;;;28.36
71649;BMP180;59492;45.638;11.714;2022-08-30T13:46:03;101057.20;;;28.34
71649;BMP180;59492;45.638;11.714;2022-08-30T13:48:31;101056.80;;;28.30
71649;BMP180;59492;45.638;11.714;2022-08-30T13:50:57;101051.40;;;28.30
71649;BMP180;59492;45.638;11.714;2022-08-30T13:53:23;101053.80;;;28.30
71649;BMP180;59492;45.638;11.714;2022-08-30T13:55:48;101050.40;;;28.30
71649;BMP180;59492;45.638;11.714;2022-08-30T13:58:15;101054.40;;;28.30
71649;BMP180;59492;45.638;11.714;2022-08-30T14:00:41;101054.20;;;28.30
71649;BMP180;59492;45.638;11.714;2022-08-30T14:03:08;101053.20;;;28.28
71649;BMP180;59492;45.638;11.714;2022-08-30T14:05:35;101048.60;;;28.26
71649;BMP180;59492;45.638;11.714;2022-08-30T14:08:02;101044.00;;;28.20
71649;BMP180;59492;45.638;11.714;2022-08-30T14:10:30;101042.20;;;28.20
71649;BMP180;59492;45.638;11.714;2022-08-30T14:12:56;101033.40;;;28.20
71649;BMP180;59492;45.638;11.714;2022-08-30T14:15:22;101030.60;;;28.20
71649;BMP180;59492;45.638;11.714;2022-08-30T14:17:50;101024.20;;;28.20
71649;BMP180;59492;45.638;11.714;2022-08-30T14:20:18;101020.20;;;28.20
71649;BMP180;59492;45.638;11.714;2022-08-30T14:22:44;101018.40;;;28.16
71649;BMP180;59492;45.638;11.714;2022-08-30T14:25:10;101006.40;;;28.16
71649;BMP180;59492;45.638;11.714;2022-08-30T14:27:36;101003.60;;;28.10
71649;BMP180;59492;45.638;11.714;2022-08-30T14:30:04;100995.80;;;28.10
71649;BMP180;59492;45.638;11.714;2022-08-30T14:32:35;100991.00;;;28.10
71649;BMP180;59492;45.638;11.714;2022-08-30T14:35:03;100989.80;;;28.10
71649;BMP180;59492;45.638;11.714;2022-08-30T14:37:29;100990.80;;;28.10
71649;BMP180;59492;45.638;11.714;2022-08-30T14:39:55;100986.80;;;28.10
71649;BMP180;59492;45.638;11.714;2022-08-30T14:42:22;100980.20;;;28.08
71649;BMP180;59492;45.638;11.714;2022-08-30T14:44:50;100980.20;;;28.06
71649;BMP180;59492;45.638;11.714;2022-08-30T14:47:16;100977.40;;;28.00
71649;BMP180;59492;45.638;11.714;2022-08-30T14:49:42;100975.20;;;28.00
71649;BMP180;59492;45.638;11.714;2022-08-30T14:52:07;100973.00;;;28.00
71649;BMP180;59492;45.638;11.714;2022-08-30T14:54:43;100970.40;;;28.00
71649;BMP180;59492;45.638;11.714;2022-08-30T14:57:09;100963.40;;;28.00
71649;BMP180;59492;45.638;11.714;2022-08-30T14:59:35;100954.80;;;28.00
71649;BMP180;59492;45.638;11.714;2022-08-30T15:02:03;100950.60;;;28.00
71649;BMP180;59492;45.638;11.714;2022-08-30T15:04:29;100951.40;;;27.98
71649;BMP180;59492;45.638;11.714;2022-08-30T15:06:55;100947.40;;;27.96
71649;BMP180;59492;45.638;11.714;2022-08-30T15:09:22;100945.00;;;27.90
71649;BMP180;59492;45.638;11.714;2022-08-30T15:11:51;100941.00;;;27.90
71649;BMP180;59492;45.638;11.714;2022-08-30T15:14:20;100936.40;;;27.90
71649;BMP180;59492;45.638;11.714;2022-08-30T15:16:49;100929.00;;;27.90
71649;BMP180;59492;45.638;11.714;2022-08-30T15:19:17;100926.40;;;27.90
71649;BMP180;59492;45.638;11.714;2022-08-30T15:21:44;100930.80;;;27.90